WetterOnline ( https://www.wetteronline.de )

Wetter aktuell Norderney

Aktuelles Wetter: Norderney (16m)

6-stündlich | Neueste Meldungen
Ortszeit Temperatur Wetter
Mi, 21.04. 14:00 8.3° C wolkenlos
Mi, 21.04. 8:00 7.8° C bedeckt
Mi, 21.04. 2:00 7.4° C wolkenlos
Di, 20.04. 20:00 9.7° C wolkenlos
Di, 20.04. 14:00 10.2° C wolkenlos
Di, 20.04. 8:00 8.1° C wolkenlos
Di, 20.04. 2:00 7.8° C wolkenlos
Mo, 19.04. 20:00 8.2° C fast wolkenlos
Ortszeit Temperatur Wetter
Mi, 21.04. 14:00 8.3° C wolkenlos
Mi, 21.04. 13:50 8.3° C wolkenlos
Mi, 21.04. 13:40 7.9° C wolkenlos
Mi, 21.04. 13:30 8.1° C fast wolkenlos
Mi, 21.04. 13:20 8.1° C fast wolkenlos
Mi, 21.04. 13:10 8.3° C leicht bewölkt
Mi, 21.04. 13:00 8.6° C wolkig
Mi, 21.04. 12:30 7.9° C bewölkt
Mi, 21.04. 12:00 8.5° C bewölkt
Mi, 21.04. 11:30 8.4° C wolkig
Mi, 21.04. 11:00 8.0° C bewölkt
Ortszeit Relative Feuchte Sichtweite
Mi, 21.04. 14:00 66% 20 km
Mi, 21.04. 8:00 93% 7 km
Mi, 21.04. 2:00 89% 30 km
Di, 20.04. 20:00 74% 40 km
Di, 20.04. 14:00 71% 40 km
Di, 20.04. 8:00 84% 18 km
Di, 20.04. 2:00 88% 14 km
Mo, 19.04. 20:00 92% 12 km
Ortszeit Relative Feuchte Sichtweite
Mi, 21.04. 14:00 66% 20 km
Mi, 21.04. 13:50 66% -
Mi, 21.04. 13:40 65% -
Mi, 21.04. 13:30 66% 27 km
Mi, 21.04. 13:20 66% -
Mi, 21.04. 13:10 69% -
Mi, 21.04. 13:00 71% 27 km
Mi, 21.04. 12:30 71% 30 km
Mi, 21.04. 12:00 72% 22 km
Mi, 21.04. 11:30 76% 28 km
Mi, 21.04. 11:00 79% 30 km
Ortszeit Niederschlagsmenge Niederschlagsart
Mi, 21.04. 14:00 0.0 l/m2 in 6 Std. -
Mi, 21.04. 8:00 0.0 l/m2 in 12 Std. -
Mi, 21.04. 2:00 0.0 l/m2 in 6 Std. -
Di, 20.04. 20:00 0.0 l/m2 in 12 Std. -
Di, 20.04. 14:00 0.0 l/m2 in 6 Std. -
Di, 20.04. 8:00 0.0 l/m2 in 12 Std. -
Di, 20.04. 2:00 0.0 l/m2 in 6 Std. -
Mo, 19.04. 20:00 0.0 l/m2 in 12 Std. -
Ortszeit Niederschlagsmenge Niederschlagsart
Mi, 21.04. 14:00 0.0 l/m2 in 1 Std. -
Mi, 21.04. 13:50 keine Meldung -
Mi, 21.04. 13:40 keine Meldung -
Mi, 21.04. 13:30 0.0 l/m2 in 1 Std. -
Mi, 21.04. 13:20 keine Meldung -
Mi, 21.04. 13:10 keine Meldung -
Mi, 21.04. 13:00 0.0 l/m2 in 1 Std. -
Mi, 21.04. 12:30 0.0 l/m2 in 1 Std. -
Mi, 21.04. 12:00 0.0 l/m2 in 1 Std. -
Mi, 21.04. 11:30 0.0 l/m2 in 1 Std. -
Mi, 21.04. 11:00 0.0 l/m2 in 1 Std. -
Ortszeit Stärke Spitze Richtung
km/h Bft. km/h Grad Sektor
Mi, 21.04. 14:00 33 5 43 340° N
Mi, 21.04. 8:00 29 5 36 360° N
Mi, 21.04. 2:00 7 2 25 50° NO
Di, 20.04. 20:00 14 3 22 10° N
Di, 20.04. 14:00 15 3 22 40° NO
Di, 20.04. 8:00 9 2 17 70° O
Di, 20.04. 2:00 13 3 28 50° NO
Mo, 19.04. 20:00 18 3 32 60° NO
Ortszeit Stärke Spitze Richtung
km/h Bft. km/h Grad Sektor
Mi, 21.04. 14:00 33 5 41 340° N
Mi, 21.04. 13:50 33 5 - 340° N
Mi, 21.04. 13:40 31 5 - 340° N
Mi, 21.04. 13:30 33 5 39 340° N
Mi, 21.04. 13:20 33 5 - 340° N
Mi, 21.04. 13:10 32 5 - 340° N
Mi, 21.04. 13:00 31 5 39 340° N
Mi, 21.04. 12:30 31 5 39 350° N
Mi, 21.04. 12:00 32 5 43 350° N
Mi, 21.04. 11:30 31 5 35 350° N
Mi, 21.04. 11:00 29 5 40 350° N
Ortszeit Untergrenze Bedeckung Gattung
total tief tief mittel hoch
Mi, 21.04. 14:00 - 0/8 0/8 - - -
Mi, 21.04. 8:00 210 m 8/8 8/8 - - -
Mi, 21.04. 2:00 - 0/8 0/8 - - -
Di, 20.04. 20:00 - 0/8 0/8 - - -
Di, 20.04. 14:00 - 0/8 0/8 - - -
Di, 20.04. 8:00 - 0/8 0/8 - - -
Di, 20.04. 2:00 - 0/8 0/8 - - -
Mo, 19.04. 20:00 <30 m 1/8 0/8 - - -
Ortszeit Bedeckungsgrad in Achtel und Wolkenuntergrenze
Mi, 21.04. 14:00 keine Wolken
Mi, 21.04. 13:50 keine Wolken
Mi, 21.04. 13:40 keine Wolken
Mi, 21.04. 13:30 1(570m)
Mi, 21.04. 13:20 1(570m)
Mi, 21.04. 13:10 2(600m) 2(720m)
Mi, 21.04. 13:00 2(660m) 6(1500m) 6(2100m)
Mi, 21.04. 12:30 8(2100m) 7(2100m)
Mi, 21.04. 12:00 2(1500m) 7(2100m)
Mi, 21.04. 11:30 1(510m) 5(1500m) 6(2100m)
Mi, 21.04. 11:00 7(2100m) 2(1470m) 6(2100m)
Ortszeit Luftdruck NN (hPa) Tendenz (hPa in 3 Std.)
Mi, 21.04. 14:00 1020 + 0,9
Mi, 21.04. 8:00 1017 + 0,6
Mi, 21.04. 2:00 1017 - 0,5
Di, 20.04. 20:00 1017 - 0,6
Di, 20.04. 14:00 1019 - 0,3
Di, 20.04. 8:00 1019 - 0,5
Di, 20.04. 2:00 1020 - 0,7
Mo, 19.04. 20:00 1021 - 0,3
Ortszeit Luftdruck NN (hPa) Tendenz (hPa in 3 Std.)
Mi, 21.04. 14:00 1020 + 0,9
Mi, 21.04. 13:50 1020 keine Meldung
Mi, 21.04. 13:40 1020 keine Meldung
Mi, 21.04. 13:30 1020 + 1,1
Mi, 21.04. 13:20 1020 keine Meldung
Mi, 21.04. 13:10 1019 keine Meldung
Mi, 21.04. 13:00 1019 + 1,3
Mi, 21.04. 12:30 1019 + 1,4
Mi, 21.04. 12:00 1019 + 1,4
Mi, 21.04. 11:30 1019 + 1,5
Mi, 21.04. 11:00 1019 + 1,5
Ortszeit Schneehöhe (cm)
Mi, 21.04. 14:00 0
Mi, 21.04. 8:00 0
Mi, 21.04. 2:00 0
Di, 20.04. 20:00 0
Di, 20.04. 14:00 0
Di, 20.04. 8:00 0
Di, 20.04. 2:00 0
Mo, 19.04. 20:00 0
Ortszeit Schneehöhe (cm)
Mi, 21.04. 14:00 0
Mi, 21.04. 13:50 0
Mi, 21.04. 13:40 0
Mi, 21.04. 13:30 0
Mi, 21.04. 13:20 0
Mi, 21.04. 13:10 0
Mi, 21.04. 13:00 0
Mi, 21.04. 12:30 0
Mi, 21.04. 12:00 0
Mi, 21.04. 11:30 0
Mi, 21.04. 11:00 0
Link zu dieser Seite / Seite empfehlen

Das Wetter in ...